createdAt,value
2022-09-13T00:00:56.103Z,22.70
2022-09-13T00:03:25.925Z,22.60
2022-09-13T00:05:53.954Z,22.60
2022-09-13T00:08:22.343Z,22.40
2022-09-13T00:10:50.404Z,22.30
2022-09-13T00:13:18.608Z,22.40
2022-09-13T00:15:48.095Z,22.40
2022-09-13T00:18:17.314Z,22.40
2022-09-13T00:20:47.274Z,22.40
2022-09-13T00:23:15.514Z,22.50
2022-09-13T00:25:43.482Z,22.60
2022-09-13T00:28:11.552Z,22.50
2022-09-13T00:30:39.553Z,22.20
2022-09-13T00:33:07.714Z,22.20
2022-09-13T00:35:35.963Z,22.40
2022-09-13T00:38:05.514Z,22.40
2022-09-13T00:40:38.195Z,22.50
2022-09-13T00:43:12.763Z,22.30
2022-09-13T00:45:40.912Z,22.00
2022-09-13T00:48:15.674Z,22.10
2022-09-13T00:50:47.885Z,22.10
2022-09-13T00:53:20.746Z,22.10
2022-09-13T00:55:53.923Z,22.10
2022-09-13T00:58:26.154Z,22.10
2022-09-13T01:00:55.954Z,22.20
2022-09-13T01:03:27.013Z,22.20
2022-09-13T01:05:59.943Z,22.20
2022-09-13T01:08:32.644Z,22.10
2022-09-13T01:11:03.874Z,22.10
2022-09-13T01:13:35.103Z,22.00
2022-09-13T01:16:03.694Z,21.90
2022-09-13T01:18:31.705Z,22.00
2022-09-13T01:21:30.086Z,22.10
2022-09-13T01:24:15.208Z,22.00
2022-09-13T01:27:10.131Z,22.00
2022-09-13T01:30:01.031Z,22.00
2022-09-13T01:32:39.271Z,21.90
2022-09-13T01:35:18.665Z,21.90
2022-09-13T01:37:55.221Z,21.70
2022-09-13T01:40:33.272Z,21.70
2022-09-13T01:43:29.961Z,21.70
2022-09-13T01:46:05.608Z,21.70
2022-09-13T01:48:50.362Z,21.60
2022-09-13T01:51:26.820Z,21.50
2022-09-13T01:54:09.840Z,21.50
2022-09-13T01:56:43.623Z,21.50
2022-09-13T01:59:17.763Z,21.50
2022-09-13T02:01:51.590Z,21.50
2022-09-13T02:04:24.801Z,21.50
2022-09-13T02:06:58.530Z,21.50
2022-09-13T02:09:29.399Z,21.60
2022-09-13T02:12:04.141Z,21.60
2022-09-13T02:14:36.392Z,21.60
2022-09-13T02:17:08.001Z,21.50
2022-09-13T02:19:43.580Z,21.50
2022-09-13T02:22:16.720Z,21.50
2022-09-13T02:24:48.640Z,21.40
2022-09-13T02:27:23.821Z,21.40
2022-09-13T02:29:56.427Z,21.30
2022-09-13T02:32:30.467Z,21.40
2022-09-13T02:35:04.578Z,21.40
2022-09-13T02:37:36.547Z,21.20
2022-09-13T02:40:08.847Z,21.20
2022-09-13T02:42:42.369Z,21.30
2022-09-13T02:45:12.189Z,21.30
2022-09-13T02:47:46.096Z,21.20
2022-09-13T02:50:41.048Z,21.20
2022-09-13T02:53:19.162Z,21.10
2022-09-13T02:55:54.067Z,21.10
2022-09-13T02:58:28.598Z,21.10
2022-09-13T03:00:56.739Z,21.10
2022-09-13T03:03:25.518Z,21.20
2022-09-13T03:05:55.347Z,21.10
2022-09-13T03:08:24.878Z,21.10
2022-09-13T03:11:04.524Z,21.00
2022-09-13T03:13:54.009Z,21.10
2022-09-13T03:16:38.076Z,21.10
2022-09-13T03:19:27.368Z,21.10
2022-09-13T03:22:16.569Z,20.90
2022-09-13T03:24:52.939Z,20.90
2022-09-13T03:27:30.239Z,20.90
2022-09-13T03:30:04.106Z,20.90
2022-09-13T03:32:41.499Z,20.90
2022-09-13T03:35:22.419Z,20.80
2022-09-13T03:37:59.589Z,20.90
2022-09-13T03:40:37.531Z,20.70
2022-09-13T03:43:11.929Z,20.70
2022-09-13T03:45:43.386Z,20.70
2022-09-13T03:48:12.861Z,20.60
2022-09-13T03:50:42.058Z,20.60
2022-09-13T03:53:14.448Z,20.50
2022-09-13T03:55:44.231Z,20.60
2022-09-13T03:58:14.259Z,20.70
2022-09-13T04:00:42.319Z,20.60
2022-09-13T04:03:10.710Z,20.50
2022-09-13T04:05:38.699Z,20.60
2022-09-13T04:08:08.739Z,20.50
2022-09-13T04:10:40.992Z,20.50
2022-09-13T04:13:09.259Z,20.40
2022-09-13T04:15:37.178Z,20.40
2022-09-13T04:18:05.941Z,20.30
2022-09-13T04:20:33.860Z,20.30
2022-09-13T04:23:01.918Z,20.30
2022-09-13T04:25:29.999Z,20.30
2022-09-13T04:28:00.327Z,20.30
2022-09-13T04:30:28.738Z,20.20
2022-09-13T04:32:59.740Z,20.20
2022-09-13T04:35:28.928Z,20.20
2022-09-13T04:37:59.958Z,20.30
2022-09-13T04:40:28.059Z,20.30
2022-09-13T04:42:56.060Z,20.00
2022-09-13T04:45:25.739Z,19.90
2022-09-13T04:47:54.259Z,19.90
2022-09-13T04:50:23.258Z,20.00
2022-09-13T04:52:52.378Z,20.00
2022-09-13T04:55:20.357Z,20.10
2022-09-13T04:57:48.199Z,20.10
2022-09-13T05:00:16.698Z,20.10
2022-09-13T05:02:46.337Z,20.20
2022-09-13T05:05:15.152Z,20.20
2022-09-13T05:07:43.114Z,20.10
2022-09-13T05:10:12.752Z,20.00
2022-09-13T05:12:42.309Z,20.10
2022-09-13T05:15:12.799Z,20.10
2022-09-13T05:17:40.850Z,20.10
2022-09-13T05:20:11.519Z,20.00
2022-09-13T05:22:39.598Z,20.10
2022-09-13T05:25:08.851Z,20.30
2022-09-13T05:27:37.038Z,20.30
2022-09-13T05:30:06.067Z,20.20
2022-09-13T05:32:34.277Z,20.10
2022-09-13T05:35:02.317Z,20.20
2022-09-13T05:37:31.836Z,20.10
2022-09-13T05:40:11.210Z,20.10
2022-09-13T05:42:39.956Z,20.20
2022-09-13T05:45:09.767Z,20.20
2022-09-13T05:47:37.852Z,20.10
2022-09-13T05:50:13.541Z,20.00
2022-09-13T05:52:52.847Z,20.10
2022-09-13T05:55:22.587Z,20.10
2022-09-13T05:57:51.018Z,20.20
2022-09-13T06:00:19.109Z,20.30
2022-09-13T06:02:47.555Z,20.30
2022-09-13T06:05:15.937Z,20.30
2022-09-13T06:07:44.106Z,20.20
2022-09-13T06:10:13.684Z,20.20
2022-09-13T06:12:42.087Z,20.20
2022-09-13T06:15:11.728Z,20.30
2022-09-13T06:17:40.118Z,20.40
2022-09-13T06:20:09.587Z,20.40
2022-09-13T06:22:37.777Z,20.30
2022-09-13T06:25:06.786Z,20.30
2022-09-13T06:27:36.405Z,20.30
2022-09-13T06:30:05.637Z,20.20
2022-09-13T06:32:33.597Z,20.30
2022-09-13T06:35:01.617Z,20.30
2022-09-13T06:37:29.677Z,20.50
2022-09-13T06:39:58.260Z,20.60
2022-09-13T06:42:26.436Z,20.70
2022-09-13T06:44:56.196Z,20.70
2022-09-13T06:47:24.660Z,20.60
2022-09-13T06:49:52.757Z,20.70
2022-09-13T06:52:20.827Z,20.90
2022-09-13T06:54:48.768Z,20.90
2022-09-13T06:57:16.859Z,20.80
2022-09-13T06:59:44.966Z,20.80
2022-09-13T07:02:15.489Z,20.80
2022-09-13T07:04:43.916Z,20.90
2022-09-13T07:07:11.947Z,21.00
2022-09-13T07:09:43.847Z,21.10
2022-09-13T07:12:12.458Z,21.20
2022-09-13T07:14:40.466Z,21.10
2022-09-13T07:17:08.578Z,21.10
2022-09-13T07:19:38.037Z,21.10
2022-09-13T07:22:06.289Z,21.30
2022-09-13T07:24:34.351Z,21.40
2022-09-13T07:27:02.272Z,21.50
2022-09-13T07:29:30.497Z,21.60
2022-09-13T07:31:58.918Z,21.70
2022-09-13T07:34:27.768Z,21.70
2022-09-13T07:36:57.247Z,21.80
2022-09-13T07:39:25.307Z,21.90
2022-09-13T07:41:54.085Z,21.90
2022-09-13T07:44:23.101Z,22.00
2022-09-13T07:46:51.247Z,22.10
2022-09-13T07:49:20.430Z,22.10
2022-09-13T07:51:51.596Z,22.20
2022-09-13T07:54:21.432Z,22.30
2022-09-13T07:56:50.744Z,22.40
2022-09-13T07:59:19.827Z,22.60
2022-09-13T08:01:49.396Z,22.60
2022-09-13T08:04:19.436Z,22.60
2022-09-13T08:06:47.948Z,22.70
2022-09-13T08:09:16.747Z,22.60
2022-09-13T08:11:48.021Z,22.70
2022-09-13T08:14:18.127Z,22.80
2022-09-13T08:16:46.587Z,22.80
2022-09-13T08:19:16.608Z,22.90
2022-09-13T08:21:45.827Z,23.00
2022-09-13T08:24:16.169Z,23.00
2022-09-13T08:26:46.429Z,23.00
2022-09-13T08:29:15.723Z,23.00
2022-09-13T08:31:44.067Z,23.10
2022-09-13T08:34:14.843Z,23.10
2022-09-13T08:36:43.666Z,23.20
2022-09-13T08:39:15.778Z,23.40
2022-09-13T08:42:09.487Z,23.50
2022-09-13T08:44:42.393Z,23.60
2022-09-13T08:47:31.207Z,23.60
2022-09-13T08:50:04.837Z,23.70
2022-09-13T08:52:36.891Z,23.80
2022-09-13T08:55:25.177Z,23.90
2022-09-13T08:58:01.749Z,24.10
2022-09-13T09:00:35.939Z,24.10
2022-09-13T09:03:16.420Z,24.10
2022-09-13T09:05:50.776Z,24.10
2022-09-13T09:08:31.548Z,24.20
2022-09-13T09:11:07.966Z,24.20
2022-09-13T09:13:41.719Z,24.30
2022-09-13T09:16:25.878Z,24.40
2022-09-13T09:19:00.517Z,24.50
2022-09-13T09:21:28.577Z,24.60
2022-09-13T09:23:57.257Z,24.70
2022-09-13T09:26:33.367Z,24.70
2022-09-13T09:29:11.957Z,24.80
2022-09-13T09:31:46.489Z,24.80
2022-09-13T09:34:23.307Z,24.80
2022-09-13T09:37:02.489Z,24.90
2022-09-13T09:39:39.850Z,25.00
2022-09-13T09:42:14.526Z,25.20
2022-09-13T09:44:47.227Z,25.30
2022-09-13T09:47:19.746Z,25.40
2022-09-13T09:50:10.485Z,25.40
2022-09-13T09:52:43.563Z,25.50
2022-09-13T09:55:21.589Z,25.70
2022-09-13T09:57:55.850Z,25.80
2022-09-13T10:00:27.826Z,25.80
2022-09-13T10:03:00.075Z,25.90
2022-09-13T10:05:30.684Z,26.00
2022-09-13T10:08:03.169Z,26.10
2022-09-13T10:10:39.083Z,26.20
2022-09-13T10:13:14.814Z,26.20
2022-09-13T10:15:58.365Z,26.30
2022-09-13T10:18:45.150Z,26.50
2022-09-13T10:21:25.310Z,26.50
2022-09-13T10:24:14.556Z,26.70
2022-09-13T10:26:44.780Z,26.70
2022-09-13T10:29:17.901Z,26.90
2022-09-13T10:31:55.475Z,27.10
2022-09-13T10:34:30.369Z,27.30
2022-09-13T10:37:02.454Z,27.30
2022-09-13T10:39:34.929Z,27.30
2022-09-13T10:42:07.380Z,27.40
2022-09-13T10:44:42.057Z,27.50
2022-09-13T10:47:19.557Z,27.60
2022-09-13T10:49:53.785Z,27.50
2022-09-13T10:52:31.938Z,27.70
2022-09-13T10:55:26.660Z,27.60
2022-09-13T10:57:56.968Z,27.60
2022-09-13T11:00:33.586Z,27.70
2022-09-13T11:03:28.655Z,27.90
2022-09-13T11:06:06.156Z,27.90
2022-09-13T11:08:48.510Z,27.90
2022-09-13T11:11:24.638Z,27.80
2022-09-13T11:14:06.485Z,28.00
2022-09-13T11:16:48.897Z,28.30
2022-09-13T11:19:47.219Z,28.50
2022-09-13T11:22:34.792Z,28.60
2022-09-13T11:25:14.925Z,28.70
2022-09-13T11:27:54.144Z,28.70
2022-09-13T11:30:29.695Z,28.80
2022-09-13T11:33:17.464Z,29.00
2022-09-13T11:35:56.210Z,29.10
2022-09-13T11:38:37.995Z,29.20
2022-09-13T11:41:17.865Z,29.30
2022-09-13T11:44:01.649Z,29.30
2022-09-13T11:46:42.155Z,29.40
2022-09-13T11:49:46.384Z,29.70
2022-09-13T11:52:27.645Z,29.80
2022-09-13T11:55:09.315Z,29.80
2022-09-13T11:57:42.908Z,29.90
2022-09-13T12:00:21.319Z,29.90
2022-09-13T12:02:59.473Z,29.80
2022-09-13T12:05:32.204Z,29.90
2022-09-13T12:08:07.174Z,30.00
2022-09-13T12:10:41.145Z,30.00
2022-09-13T12:13:17.445Z,30.10
2022-09-13T12:15:48.224Z,30.20
2022-09-13T12:18:22.104Z,30.10
2022-09-13T12:20:55.117Z,30.20
2022-09-13T12:23:30.808Z,30.20
2022-09-13T12:26:04.228Z,30.20
2022-09-13T12:28:38.210Z,30.30
2022-09-13T12:31:10.805Z,30.20
2022-09-13T12:33:41.454Z,30.40
2022-09-13T12:36:40.857Z,30.50
2022-09-13T12:39:37.115Z,30.60
2022-09-13T12:42:47.804Z,30.50
2022-09-13T12:45:41.923Z,30.50
2022-09-13T12:48:22.964Z,30.70
2022-09-13T12:51:06.614Z,30.70
2022-09-13T12:54:14.734Z,30.60
2022-09-13T12:57:03.157Z,30.70
2022-09-13T12:59:52.775Z,30.80
2022-09-13T13:02:31.297Z,30.80
2022-09-13T13:05:03.154Z,30.90
2022-09-13T13:07:34.818Z,30.90
2022-09-13T13:10:04.874Z,31.00
2022-09-13T13:12:37.939Z,31.00
2022-09-13T13:15:28.833Z,30.90
2022-09-13T13:17:57.837Z,30.90
2022-09-13T13:59:34.242Z,31.20
2022-09-13T14:02:02.862Z,31.80
2022-09-13T14:04:59.052Z,31.90
2022-09-13T14:08:00.701Z,32.10
2022-09-13T14:10:38.154Z,32.10
2022-09-13T14:13:32.310Z,32.20
2022-09-13T14:16:14.373Z,32.10
2022-09-13T14:19:05.761Z,32.10
2022-09-13T14:21:34.261Z,32.40
2022-09-13T14:24:14.462Z,32.80
2022-09-13T14:26:43.022Z,33.00
2022-09-13T14:29:15.751Z,32.90
2022-09-13T14:31:47.694Z,33.00
2022-09-13T14:34:24.134Z,33.40
2022-09-13T14:36:55.013Z,33.40
2022-09-13T14:39:24.521Z,33.40
2022-09-13T14:42:00.991Z,33.80
2022-09-13T14:44:30.166Z,33.80
2022-09-13T14:47:13.061Z,33.80
2022-09-13T14:49:49.346Z,34.10
2022-09-13T14:52:25.104Z,33.70
2022-09-13T14:54:57.945Z,33.80
2022-09-13T14:57:30.109Z,34.00
2022-09-13T15:00:02.261Z,34.00
2022-09-13T15:02:36.939Z,34.00
2022-09-13T15:05:09.704Z,33.90
2022-09-13T15:07:39.541Z,34.00
2022-09-13T15:10:20.233Z,33.80
2022-09-13T15:12:54.660Z,33.70
2022-09-13T15:15:33.652Z,33.50
2022-09-13T15:18:06.310Z,33.10
2022-09-13T15:20:50.341Z,33.30
2022-09-13T15:23:21.682Z,33.60
2022-09-13T15:25:57.450Z,33.60
2022-09-13T15:28:28.851Z,34.10
2022-09-13T15:31:00.191Z,33.90
2022-09-13T15:33:32.352Z,34.10
2022-09-13T15:36:27.651Z,34.40
2022-09-13T15:39:05.280Z,34.10
2022-09-13T15:41:35.931Z,33.70
2022-09-13T15:44:07.483Z,33.00
2022-09-13T15:46:47.461Z,32.50
2022-09-13T15:49:19.661Z,32.00
2022-09-13T15:51:48.619Z,31.60
2022-09-13T15:54:18.113Z,31.30
2022-09-13T15:56:48.052Z,31.00
2022-09-13T15:59:18.511Z,30.80
2022-09-13T16:01:48.375Z,30.70
2022-09-13T16:04:18.771Z,30.50
2022-09-13T16:06:47.235Z,30.40
2022-09-13T16:09:19.754Z,30.30
2022-09-13T16:11:49.192Z,30.20
2022-09-13T16:14:18.212Z,30.10
2022-09-13T16:16:49.474Z,29.90
2022-09-13T16:19:24.173Z,29.80
2022-09-13T16:21:56.703Z,29.70
2022-09-13T16:24:25.251Z,29.60
2022-09-13T16:26:53.740Z,29.60
2022-09-13T16:29:22.141Z,29.40
2022-09-13T16:31:50.460Z,29.30
2022-09-13T16:34:21.905Z,29.20
2022-09-13T16:36:50.823Z,29.10
2022-09-13T16:39:19.538Z,29.00
2022-09-13T16:41:48.362Z,28.90
2022-09-13T16:44:16.986Z,28.80
2022-09-13T16:46:45.595Z,28.80
2022-09-13T16:49:13.833Z,28.60
2022-09-13T16:51:43.811Z,28.60
2022-09-13T16:54:12.120Z,28.50
2022-09-13T16:56:40.381Z,28.50
2022-09-13T16:59:08.882Z,28.40
2022-09-13T17:01:37.589Z,28.30
2022-09-13T17:04:06.671Z,28.30
2022-09-13T17:06:35.392Z,28.20
2022-09-13T17:09:07.922Z,28.20
2022-09-13T17:11:38.732Z,28.20
2022-09-13T17:14:09.482Z,28.10
2022-09-13T17:16:40.834Z,28.00
2022-09-13T17:19:12.881Z,28.00
2022-09-13T17:21:41.124Z,27.90
2022-09-13T17:24:13.520Z,27.80
2022-09-13T17:26:43.521Z,27.80
2022-09-13T17:29:13.735Z,27.70
2022-09-13T17:31:43.761Z,27.60
2022-09-13T17:34:13.551Z,27.50
2022-09-13T17:36:43.282Z,27.50
2022-09-13T17:39:13.762Z,27.50
2022-09-13T17:41:42.152Z,27.30
2022-09-13T17:44:12.490Z,27.20
2022-09-13T17:46:41.370Z,27.20
2022-09-13T17:49:09.912Z,27.10
2022-09-13T17:51:38.371Z,27.10
2022-09-13T17:54:10.542Z,27.10
2022-09-13T17:56:42.455Z,27.00
2022-09-13T17:59:13.553Z,27.00
2022-09-13T18:01:44.230Z,27.00
2022-09-13T18:04:14.192Z,27.00
2022-09-13T18:06:44.683Z,26.90
2022-09-13T18:09:14.511Z,26.90
2022-09-13T18:11:45.072Z,26.80
2022-09-13T18:14:14.551Z,26.80
2022-09-13T18:16:43.317Z,26.80
2022-09-13T18:19:12.187Z,26.80
2022-09-13T18:21:40.614Z,26.80
2022-09-13T18:24:10.012Z,26.80
2022-09-13T18:26:39.923Z,26.70
2022-09-13T18:29:14.083Z,26.70
2022-09-13T18:31:43.167Z,26.60
2022-09-13T18:34:13.523Z,26.50
2022-09-13T18:36:42.411Z,26.50
2022-09-13T18:39:17.411Z,26.40
2022-09-13T18:41:47.654Z,26.30
2022-09-13T18:44:18.835Z,26.30
2022-09-13T18:46:48.253Z,26.30
2022-09-13T18:49:18.752Z,26.20
2022-09-13T18:51:47.253Z,26.20
2022-09-13T18:54:18.122Z,26.20
2022-09-13T18:56:51.211Z,26.20
2022-09-13T18:59:23.823Z,26.20
2022-09-13T19:01:53.627Z,26.20
2022-09-13T19:04:23.542Z,26.10
2022-09-13T19:06:53.141Z,26.10
2022-09-13T19:09:23.862Z,26.10
2022-09-13T19:11:55.511Z,26.00
2022-09-13T19:14:30.341Z,26.00
2022-09-13T19:17:05.992Z,26.00
2022-09-13T19:19:36.263Z,26.00
2022-09-13T19:22:07.021Z,26.00
2022-09-13T19:24:38.752Z,25.90
2022-09-13T19:27:12.107Z,25.90
2022-09-13T19:29:42.162Z,26.00
2022-09-13T19:32:11.700Z,26.00
2022-09-13T19:34:40.293Z,26.10
2022-09-13T19:37:09.581Z,26.00
2022-09-13T19:39:38.923Z,26.00
2022-09-13T19:42:08.562Z,26.00
2022-09-13T19:44:37.635Z,26.00
2022-09-13T19:50:00.437Z,26.00
2022-09-13T19:52:30.953Z,25.80
2022-09-13T19:55:00.274Z,25.80
2022-09-13T19:57:28.563Z,25.80
2022-09-13T19:59:56.961Z,25.80
2022-09-13T20:02:27.032Z,25.80
2022-09-13T20:04:55.531Z,25.60
2022-09-13T20:07:25.033Z,25.60
2022-09-13T20:09:53.952Z,25.50
2022-09-13T20:12:24.282Z,25.50
2022-09-13T20:14:53.072Z,25.50
2022-09-13T20:17:24.152Z,25.50
2022-09-13T20:19:57.163Z,25.50
2022-09-13T20:22:32.693Z,25.60
2022-09-13T20:25:03.412Z,25.70
2022-09-13T20:27:33.683Z,25.80
2022-09-13T20:30:04.843Z,25.60
2022-09-13T20:32:33.891Z,25.60
2022-09-13T20:35:06.582Z,25.50
2022-09-13T20:37:36.193Z,25.40
2022-09-13T20:40:07.212Z,25.60
2022-09-13T20:42:36.352Z,25.70
2022-09-13T20:45:07.233Z,25.60
2022-09-13T20:47:37.621Z,25.50
2022-09-13T20:50:11.803Z,25.50
2022-09-13T20:52:42.570Z,25.60
2022-09-13T20:55:14.463Z,25.70
2022-09-13T20:57:43.392Z,25.70
2022-09-13T21:00:13.032Z,25.70
2022-09-13T21:02:42.272Z,25.60
2022-09-13T21:05:12.361Z,25.60
2022-09-13T21:07:59.182Z,25.60
2022-09-13T21:10:27.102Z,25.60
2022-09-13T21:12:55.311Z,25.60
2022-09-13T21:15:23.791Z,25.50
2022-09-13T21:17:51.941Z,25.50
2022-09-13T21:20:21.880Z,25.50
2022-09-13T21:22:50.520Z,25.50
2022-09-13T21:25:19.679Z,25.50
2022-09-13T21:27:48.264Z,25.50
2022-09-13T21:30:17.282Z,25.40
2022-09-13T21:32:45.841Z,25.40
2022-09-13T21:35:15.613Z,25.40
2022-09-13T21:37:47.173Z,25.30
2022-09-13T21:40:15.865Z,25.30
2022-09-13T21:42:44.393Z,25.30
2022-09-13T21:45:13.515Z,25.20
2022-09-13T21:47:41.842Z,25.20
2022-09-13T21:50:10.945Z,25.20
2022-09-13T21:52:39.055Z,25.20
2022-09-13T21:55:09.769Z,25.20
2022-09-13T21:57:38.166Z,25.20
2022-09-13T22:00:07.451Z,25.00
2022-09-13T22:02:42.719Z,25.00
2022-09-13T22:05:11.044Z,25.00
2022-09-13T22:07:38.969Z,25.00
2022-09-13T22:10:10.247Z,25.00
2022-09-13T22:12:38.518Z,24.90
2022-09-13T22:15:07.927Z,24.90
2022-09-13T22:17:35.927Z,24.90
2022-09-13T22:20:04.777Z,24.80
2022-09-13T22:22:33.027Z,24.80
2022-09-13T22:25:01.229Z,24.80
2022-09-13T22:27:31.177Z,24.90
2022-09-13T22:29:59.258Z,25.00
2022-09-13T22:32:30.570Z,24.80
2022-09-13T22:34:59.019Z,24.60
2022-09-13T22:37:27.108Z,24.50
2022-09-13T22:39:57.764Z,24.50
2022-09-13T22:42:26.268Z,24.60
2022-09-13T22:44:55.917Z,24.50
2022-09-13T22:47:24.127Z,24.60
2022-09-13T22:49:52.316Z,24.50
2022-09-13T22:52:21.150Z,24.50
2022-09-13T22:54:51.117Z,24.50
2022-09-13T22:57:19.235Z,24.40
2022-09-13T22:59:47.319Z,24.50
2022-09-13T23:02:17.058Z,24.60
2022-09-13T23:04:45.038Z,24.50
2022-09-13T23:07:13.108Z,24.50
2022-09-13T23:09:41.415Z,24.50
2022-09-13T23:12:09.969Z,24.40
2022-09-13T23:14:38.099Z,24.40
2022-09-13T23:17:06.246Z,24.40
2022-09-13T23:19:35.668Z,24.30
2022-09-13T23:22:03.608Z,24.30
2022-09-13T23:24:31.819Z,24.40
2022-09-13T23:27:01.817Z,24.40
2022-09-13T23:29:29.668Z,24.40
2022-09-13T23:31:57.661Z,24.50
2022-09-13T23:34:25.837Z,24.50
2022-09-13T23:36:55.410Z,24.40
2022-09-13T23:39:23.800Z,24.50
2022-09-13T23:41:51.856Z,24.50
2022-09-13T23:44:20.086Z,24.50
2022-09-13T23:46:47.949Z,24.50
2022-09-13T23:49:16.136Z,24.50
2022-09-13T23:51:44.278Z,24.40
2022-09-13T23:54:14.348Z,24.30
2022-09-13T23:56:42.407Z,24.30
2022-09-13T23:59:12.337Z,24.20
